Time;durP1;ratioP1;P1;durP2;ratioP2;P2;SDS_P1;SDS_P2;PMS_P1;PMS_P2;Temp;Humidity;BMP_temperature;BMP_pressure;BME280_temperature;BME280_humidity;BME280_pressure;Samples;Min_cycle;Max_cycle;Signal;HPM_P1;HPM_P2
2023/05/19 00:04:43;;;;;;;6.50;3.60;;;;;;;;;;12668963;23;20446;-85
2023/05/19 00:09:49;;;;;;;4.95;2.85;;;;;;;;;;12669829;23;20367;-85
2023/05/19 00:14:54;;;;;;;6.75;3.70;;;;;;;;;;12669868;23;20390;-85
2023/05/19 00:19:56;;;;;;;6.30;3.15;;;;;;;;;;12670767;23;20438;-85
2023/05/19 00:24:58;;;;;;;5.93;3.40;;;;;;;;;;12669061;23;20696;-84
2023/05/19 00:30:02;;;;;;;5.57;3.30;;;;;;;;;;12666261;23;20426;-85
2023/05/19 00:35:05;;;;;;;7.73;3.63;;;;;;;;;;12668840;23;20387;-85
2023/05/19 00:40:10;;;;;;;6.22;3.30;;;;;;;;;;12667897;23;20685;-85
2023/05/19 00:45:14;;;;;;;5.65;3.72;;;;;;;;;;12669986;23;20368;-83
2023/05/19 00:50:16;;;;;;;6.55;3.50;;;;;;;;;;12674406;23;20406;-84
2023/05/19 00:55:20;;;;;;;7.22;3.70;;;;;;;;;;12668280;23;20454;-85
2023/05/19 01:00:24;;;;;;;5.28;3.67;;;;;;;;;;12669233;23;20430;-85
2023/05/19 01:05:26;;;;;;;4.60;3.50;;;;;;;;;;12669068;23;20906;-85
2023/05/19 01:10:29;;;;;;;5.93;3.65;;;;;;;;;;12689425;23;20379;-85
2023/05/19 01:15:36;;;;;;;6.65;3.72;;;;;;;;;;12689959;23;20938;-85
2023/05/19 01:20:45;;;;;;;7.07;3.40;;;;;;;;;;12669161;23;20430;-84
2023/05/19 01:26:19;;;;;;;5.60;3.53;;;;;;;;;;12669944;23;20438;-84
2023/05/19 01:31:25;;;;;;;6.43;3.60;;;;;;;;;;12619879;23;20379;-85
2023/05/19 01:36:28;;;;;;;4.47;3.50;;;;;;;;;;12667985;23;20394;-85
2023/05/19 01:41:32;;;;;;;7.85;3.83;;;;;;;;;;12668922;23;20372;-85
2023/05/19 01:46:37;;;;;;;5.73;4.00;;;;;;;;;;12688878;23;20890;-85
2023/05/19 01:51:40;;;;;;;5.35;3.70;;;;;;;;;;12671739;23;20370;-85
2023/05/19 01:56:50;;;;;;;5.57;3.43;;;;;;;;;;12667261;23;20771;-85
2023/05/19 02:01:56;;;;;;;5.28;3.33;;;;;;;;;;12667431;23;20442;-85
2023/05/19 02:07:03;;;;;;;6.03;3.67;;;;;;;;;;12668978;23;20371;-84
2023/05/19 02:12:14;;;;;;;6.95;3.78;;;;;;;;;;12667362;23;20434;-84
2023/05/19 02:17:20;;;;;;;6.10;4.13;;;;;;;;;;12667363;23;20414;-84
2023/05/19 02:22:22;;;;;;;7.20;3.90;;;;;;;;;;12667577;23;20379;-85
2023/05/19 02:27:25;;;;;;;5.40;3.80;;;;;;;;;;12688337;23;20894;-84
2023/05/19 02:32:28;;;;;;;5.60;4.00;;;;;;;;;;12665864;23;20367;-84
2023/05/19 02:37:31;;;;;;;7.05;4.03;;;;;;;;;;12667198;23;20883;-85
2023/05/19 02:42:33;;;;;;;6.43;4.10;;;;;;;;;;12667963;23;20371;-84
2023/05/19 02:47:37;;;;;;;5.18;3.72;;;;;;;;;;12667210;23;20376;-85
2023/05/19 02:52:39;;;;;;;6.35;4.25;;;;;;;;;;12671858;23;20458;-85
2023/05/19 02:57:42;;;;;;;5.97;4.20;;;;;;;;;;12666925;23;20395;-85
2023/05/19 03:02:46;;;;;;;6.47;4.07;;;;;;;;;;12666754;23;20919;-85
2023/05/19 03:07:48;;;;;;;6.45;4.28;;;;;;;;;;12667212;23;20355;-84
2023/05/19 03:12:53;;;;;;;7.40;4.05;;;;;;;;;;12667670;23;20712;-85
2023/05/19 03:17:56;;;;;;;6.25;4.13;;;;;;;;;;12666065;23;20455;-85
2023/05/19 03:22:59;;;;;;;6.13;3.90;;;;;;;;;;12690645;23;20378;-84
2023/05/19 03:28:01;;;;;;;6.53;3.90;;;;;;;;;;12670639;23;20403;-85
2023/05/19 03:33:05;;;;;;;7.60;3.97;;;;;;;;;;12671164;23;20442;-85
2023/05/19 03:38:07;;;;;;;4.90;3.85;;;;;;;;;;12670192;23;20751;-85
2023/05/19 03:43:10;;;;;;;6.72;3.75;;;;;;;;;;12671320;23;20430;-85
2023/05/19 03:48:15;;;;;;;6.23;3.70;;;;;;;;;;12670224;23;20375;-85
2023/05/19 03:53:17;;;;;;;5.25;4.13;;;;;;;;;;12671816;23;20379;-85
2023/05/19 03:58:19;;;;;;;5.80;3.77;;;;;;;;;;12673892;23;20391;-85
2023/05/19 04:03:24;;;;;;;7.43;3.80;;;;;;;;;;12670764;23;20367;-84
2023/05/19 04:08:27;;;;;;;6.87;4.00;;;;;;;;;;12670399;23;20827;-85
2023/05/19 04:13:29;;;;;;;5.75;3.70;;;;;;;;;;12671520;23;20839;-85
2023/05/19 04:18:33;;;;;;;5.80;3.85;;;;;;;;;;12670204;23;20943;-85
2023/05/19 04:23:35;;;;;;;5.50;3.97;;;;;;;;;;12671709;23;20375;-83
2023/05/19 04:28:40;;;;;;;5.53;3.90;;;;;;;;;;12670039;23;20407;-84
2023/05/19 04:33:44;;;;;;;6.93;4.10;;;;;;;;;;12669844;23;20391;-84
2023/05/19 04:38:47;;;;;;;7.13;3.90;;;;;;;;;;12669468;23;20394;-84
2023/05/19 04:43:50;;;;;;;6.25;4.20;;;;;;;;;;12669545;23;20387;-84
2023/05/19 04:48:55;;;;;;;7.00;4.18;;;;;;;;;;12670552;23;20418;-85
2023/05/19 04:53:58;;;;;;;7.55;4.20;;;;;;;;;;12670623;23;20383;-84
2023/05/19 04:59:00;;;;;;;7.07;4.10;;;;;;;;;;12674592;23;20768;-84
2023/05/19 05:04:04;;;;;;;8.95;4.10;;;;;;;;;;12666108;23;20370;-84
2023/05/19 05:09:07;;;;;;;6.50;3.90;;;;;;;;;;12683864;23;20379;-85
2023/05/19 05:14:09;;;;;;;6.65;4.13;;;;;;;;;;12663864;23;20427;-85
2023/05/19 05:19:14;;;;;;;6.32;4.00;;;;;;;;;;12666118;23;20391;-85
2023/05/19 05:24:17;;;;;;;6.50;4.10;;;;;;;;;;12668058;23;20701;-84
2023/05/19 05:29:20;;;;;;;6.90;4.13;;;;;;;;;;12665626;23;20367;-85
2023/05/19 05:34:23;;;;;;;9.25;4.00;;;;;;;;;;12665519;23;20526;-84
2023/05/19 08:04:35;;;;;;;3.72;2.78;;;;;;;;;;12713601;23;20432;-85
2023/05/19 08:09:39;;;;;;;6.10;2.92;;;;;;;;;;12731305;23;20369;-85
2023/05/19 08:14:41;;;;;;;3.30;2.92;;;;;;;;;;12731268;23;20366;-85
2023/05/19 08:19:43;;;;;;;3.90;2.63;;;;;;;;;;12730755;23;20401;-85
2023/05/19 08:24:48;;;;;;;4.68;2.78;;;;;;;;;;12730065;23;20427;-86
2023/05/19 08:29:50;;;;;;;4.10;2.50;;;;;;;;;;12730529;23;20401;-85
2023/05/19 08:34:53;;;;;;;5.15;2.85;;;;;;;;;;12729644;23;20845;-86
2023/05/19 08:39:57;;;;;;;3.78;2.85;;;;;;;;;;12729588;23;20366;-86
2023/05/19 08:44:59;;;;;;;3.33;2.63;;;;;;;;;;12729637;23;20377;-85
2023/05/19 08:50:06;;;;;;;2.70;2.10;;;;;;;;;;12729374;23;20409;-85
2023/05/19 08:55:20;;;;;;;3.17;1.92;;;;;;;;;;12730136;23;20369;-84
2023/05/19 09:00:23;;;;;;;3.70;1.95;;;;;;;;;;12729961;23;20838;-84
2023/05/19 09:05:25;;;;;;;3.00;2.00;;;;;;;;;;12740127;23;20368;-84
2023/05/19 09:10:29;;;;;;;3.87;1.90;;;;;;;;;;12789440;23;20442;-84
2023/05/19 09:15:33;;;;;;;2.97;1.90;;;;;;;;;;12791465;23;20438;-84
2023/05/19 09:20:39;;;;;;;2.60;2.10;;;;;;;;;;12791186;23;20371;-84
2023/05/19 09:25:48;;;;;;;3.23;2.20;;;;;;;;;;12790595;23;20674;-85
2023/05/19 09:30:59;;;;;;;3.27;2.40;;;;;;;;;;12789913;23;20422;-85
2023/05/19 09:36:02;;;;;;;2.88;2.00;;;;;;;;;;12790031;23;20418;-84
2023/05/19 09:41:07;;;;;;;3.27;2.10;;;;;;;;;;12790285;23;20898;-84
2023/05/19 09:46:10;;;;;;;2.75;2.05;;;;;;;;;;12790025;23;20359;-84
2023/05/19 09:51:13;;;;;;;4.03;2.22;;;;;;;;;;12789292;23;20372;-84
2023/05/19 09:56:20;;;;;;;3.47;2.00;;;;;;;;;;12789293;23;20388;-85
2023/05/19 10:01:22;;;;;;;2.77;2.13;;;;;;;;;;12788786;23;20717;-84
2023/05/19 10:06:25;;;;;;;4.20;2.30;;;;;;;;;;12787953;23;20368;-84
2023/05/19 10:11:30;;;;;;;2.80;2.20;;;;;;;;;;12789600;23;20371;-84
2023/05/19 10:16:33;;;;;;;3.13;2.40;;;;;;;;;;12788672;23;20438;-84
2023/05/19 10:21:35;;;;;;;3.35;2.10;;;;;;;;;;12810245;23;20411;-84
2023/05/19 10:26:40;;;;;;;3.00;2.20;;;;;;;;;;12798362;23;20434;-84
2023/05/19 10:31:45;;;;;;;3.87;2.27;;;;;;;;;;12787892;23;20438;-84
2023/05/19 10:36:50;;;;;;;4.33;2.20;;;;;;;;;;12788693;23;20388;-85
2023/05/19 10:42:04;;;;;;;2.15;1.80;;;;;;;;;;12788749;23;20367;-84
2023/05/19 10:47:07;;;;;;;1.93;1.73;;;;;;;;;;12788653;23;20734;-85
2023/05/19 10:52:21;;;;;;;3.17;1.40;;;;;;;;;;12788490;23;20432;-85
2023/05/19 10:57:30;;;;;;;3.42;1.40;;;;;;;;;;12788941;23;20383;-85
2023/05/19 11:02:40;;;;;;;2.00;1.30;;;;;;;;;;12789305;23;20369;-84
2023/05/19 11:07:43;;;;;;;1.77;1.25;;;;;;;;;;12788894;23;20465;-84
2023/05/19 11:12:47;;;;;;;2.15;1.40;;;;;;;;;;12789164;23;20426;-84
2023/05/19 11:17:51;;;;;;;1.70;1.40;;;;;;;;;;12789021;23;20387;-84
2023/05/19 11:23:06;;;;;;;1.80;1.20;;;;;;;;;;12788590;23;20403;-84
2023/05/19 11:28:12;;;;;;;1.35;0.77;;;;;;;;;;12783862;23;20372;-85
2023/05/19 11:33:17;;;;;;;1.05;0.75;;;;;;;;;;12785334;23;20453;-84
2023/05/19 11:38:22;;;;;;;1.63;0.63;;;;;;;;;;12782418;23;20391;-84
2023/05/19 11:43:26;;;;;;;0.83;0.80;;;;;;;;;;12785079;23;20383;-85
2023/05/19 11:48:30;;;;;;;0.80;0.63;;;;;;;;;;12785300;23;20411;-84
2023/05/19 11:53:35;;;;;;;1.93;0.80;;;;;;;;;;12784564;23;20375;-85
2023/05/19 11:58:38;;;;;;;1.23;0.60;;;;;;;;;;12784860;23;20442;-84
2023/05/19 12:03:41;;;;;;;1.77;0.70;;;;;;;;;;12784815;23;20375;-85
2023/05/19 12:08:43;;;;;;;0.47;0.43;;;;;;;;;;12787577;23;20383;-85
2023/05/19 12:13:47;;;;;;;0.53;0.53;;;;;;;;;;12800720;23;20904;-84
2023/05/19 12:18:49;;;;;;;0.77;0.53;;;;;;;;;;12782184;23;20983;-84
2023/05/19 12:23:52;;;;;;;1.45;0.70;;;;;;;;;;12781358;23;20442;-84
2023/05/19 12:28:55;;;;;;;0.60;0.60;;;;;;;;;;12786510;23;20911;-84
2023/05/19 12:33:58;;;;;;;0.80;0.50;;;;;;;;;;12788715;23;20418;-84
2023/05/19 12:39:00;;;;;;;0.65;0.43;;;;;;;;;;12788030;23;20384;-83
2023/05/19 12:44:14;;;;;;;0.70;0.50;;;;;;;;;;12806691;23;20425;-84
2023/05/19 12:49:17;;;;;;;0.50;0.40;;;;;;;;;;12790070;23;20954;-84
2023/05/19 12:54:19;;;;;;;1.60;0.53;;;;;;;;;;12789513;23;20526;-84
2023/05/19 12:59:25;;;;;;;2.60;0.60;;;;;;;;;;12790709;23;20392;-85
2023/05/19 13:04:28;;;;;;;1.45;0.60;;;;;;;;;;12790205;23;20371;-85
2023/05/19 13:09:33;;;;;;;0.50;0.50;;;;;;;;;;12788424;23;20371;-84
2023/05/19 13:14:39;;;;;;;1.63;0.70;;;;;;;;;;12789021;23;20360;-82
2023/05/19 13:19:41;;;;;;;1.30;0.57;;;;;;;;;;12789481;23;20391;-84
2023/05/19 13:24:44;;;;;;;0.80;0.75;;;;;;;;;;12808892;23;20376;-84
2023/05/19 13:29:47;;;;;;;0.73;0.70;;;;;;;;;;12788578;23;20371;-84
2023/05/19 13:34:50;;;;;;;0.80;0.70;;;;;;;;;;12784206;23;20446;-84
2023/05/19 13:39:52;;;;;;;0.60;0.60;;;;;;;;;;12785423;23;20384;-85
2023/05/19 13:44:56;;;;;;;1.30;0.60;;;;;;;;;;12807779;23;20372;-84
2023/05/19 13:49:59;;;;;;;1.00;0.70;;;;;;;;;;12788415;23;20368;-84
2023/05/19 13:55:01;;;;;;;12.70;1.98;;;;;;;;;;12785061;23;20403;-85
2023/05/19 14:00:06;;;;;;;0.90;0.80;;;;;;;;;;12786083;23;20462;-85
2023/05/19 14:05:09;;;;;;;2.00;0.70;;;;;;;;;;12784059;23;20367;-85
2023/05/19 14:10:11;;;;;;;1.93;0.70;;;;;;;;;;12783560;23;20965;-86
2023/05/19 14:15:15;;;;;;;3.07;0.70;;;;;;;;;;12786627;23;20531;-87
2023/05/19 14:20:17;;;;;;;2.45;0.90;;;;;;;;;;12787505;23;20410;-86
2023/05/19 14:25:20;;;;;;;3.00;0.70;;;;;;;;;;12781920;23;20371;-86
2023/05/19 14:30:23;;;;;;;27.77;2.95;;;;;;;;;;12781321;23;20368;-86
2023/05/19 14:35:26;;;;;;;12.23;1.70;;;;;;;;;;12772861;23;20438;-87
2023/05/19 14:40:28;;;;;;;0.95;0.65;;;;;;;;;;12773875;23;20387;-86
2023/05/19 14:45:32;;;;;;;1.53;0.70;;;;;;;;;;12773459;23;20582;-86
2023/05/19 14:50:34;;;;;;;2.20;1.08;;;;;;;;;;12773945;23;20379;-86
2023/05/19 14:55:37;;;;;;;5.07;1.13;;;;;;;;;;12786741;23;20383;-86
2023/05/19 15:00:41;;;;;;;1.57;0.90;;;;;;;;;;12774921;23;20391;-86
2023/05/19 15:05:44;;;;;;;2.03;0.97;;;;;;;;;;12788837;23;20933;-86
2023/05/19 15:10:48;;;;;;;1.20;0.80;;;;;;;;;;12778419;23;20438;-87
2023/05/19 15:15:55;;;;;;;0.93;0.80;;;;;;;;;;12781805;23;20383;-86
2023/05/19 15:20:57;;;;;;;1.03;0.90;;;;;;;;;;12783583;23;20442;-86
2023/05/19 15:26:00;;;;;;;1.63;0.90;;;;;;;;;;12785768;23;20368;-86
2023/05/19 15:31:04;;;;;;;3.22;1.17;;;;;;;;;;12784699;23;20383;-87
2023/05/19 15:36:06;;;;;;;2.50;1.10;;;;;;;;;;12782914;23;20906;-85
2023/05/19 15:41:10;;;;;;;1.63;1.20;;;;;;;;;;12784024;23;20388;-86
2023/05/19 15:46:14;;;;;;;1.55;1.10;;;;;;;;;;12792385;23;20387;-86
2023/05/19 15:51:17;;;;;;;1.45;0.95;;;;;;;;;;12783579;23;21173;-86
2023/05/19 15:56:20;;;;;;;1.00;0.90;;;;;;;;;;12782670;23;20379;-85
2023/05/19 16:01:24;;;;;;;1.85;1.20;;;;;;;;;;12798479;23;20852;-86
2023/05/19 16:06:26;;;;;;;2.05;1.10;;;;;;;;;;12780984;23;20682;-86
2023/05/19 16:11:29;;;;;;;1.45;1.30;;;;;;;;;;12782265;23;20383;-87
2023/05/19 16:16:32;;;;;;;1.88;1.10;;;;;;;;;;12804073;23;20375;-86
2023/05/19 16:21:35;;;;;;;1.20;1.10;;;;;;;;;;12783090;23;20392;-87
2023/05/19 16:26:37;;;;;;;1.85;1.30;;;;;;;;;;12784564;23;20407;-86
2023/05/19 16:31:41;;;;;;;1.73;1.13;;;;;;;;;;12786563;23;20383;-85
2023/05/19 16:36:43;;;;;;;2.70;1.50;;;;;;;;;;12780240;23;20450;-85
2023/05/19 16:41:46;;;;;;;2.17;1.30;;;;;;;;;;12776682;23;20426;-83
2023/05/19 16:46:50;;;;;;;2.37;1.40;;;;;;;;;;12783346;23;20700;-86
2023/05/19 16:51:53;;;;;;;2.00;1.70;;;;;;;;;;12781525;23;20475;-86
2023/05/19 16:56:55;;;;;;;1.40;1.30;;;;;;;;;;12775118;23;20380;-85
2023/05/19 17:01:58;;;;;;;2.28;1.23;;;;;;;;;;12779911;23;20458;-86
2023/05/19 17:07:01;;;;;;;2.50;1.38;;;;;;;;;;12780455;23;20410;-86
2023/05/19 17:12:04;;;;;;;3.67;1.48;;;;;;;;;;12780348;23;20371;-86
2023/05/19 17:17:07;;;;;;;1.83;1.40;;;;;;;;;;12774865;23;20435;-84
2023/05/19 17:22:10;;;;;;;1.83;1.33;;;;;;;;;;12771017;23;20392;-86
2023/05/19 17:27:12;;;;;;;2.73;1.50;;;;;;;;;;12781472;23;20415;-85
2023/05/19 17:32:16;;;;;;;4.68;2.05;;;;;;;;;;12770715;23;20380;-84
2023/05/19 17:37:22;;;;;;;4.55;2.00;;;;;;;;;;12778301;23;20371;-85
2023/05/19 17:42:24;;;;;;;2.95;1.85;;;;;;;;;;12776355;23;20387;-85
2023/05/19 17:47:28;;;;;;;1.80;1.50;;;;;;;;;;12779315;23;20384;-85
2023/05/19 17:52:31;;;;;;;3.45;2.03;;;;;;;;;;12775924;23;20380;-86
2023/05/19 17:57:35;;;;;;;6.23;2.00;;;;;;;;;;12776713;23;20673;-85
2023/05/19 18:02:40;;;;;;;3.15;2.20;;;;;;;;;;12772944;23;20383;-85
2023/05/19 18:07:44;;;;;;;2.47;2.00;;;;;;;;;;12773548;23;20388;-85
2023/05/19 18:12:46;;;;;;;3.17;2.20;;;;;;;;;;12781783;23;20376;-85
2023/05/19 18:17:49;;;;;;;2.70;2.30;;;;;;;;;;12775979;23;20410;-85
2023/05/19 18:22:52;;;;;;;3.67;2.67;;;;;;;;;;12774423;23;20379;-84
2023/05/19 18:27:55;;;;;;;5.13;3.70;;;;;;;;;;12776225;23;21143;-87
2023/05/19 18:33:02;;;;;;;5.32;3.80;;;;;;;;;;12776903;23;20379;-84
2023/05/19 18:38:04;;;;;;;5.28;3.13;;;;;;;;;;12785795;23;20375;-84
2023/05/19 18:43:06;;;;;;;3.85;3.40;;;;;;;;;;12776254;23;20397;-84
2023/05/19 18:48:10;;;;;;;4.65;3.50;;;;;;;;;;12774044;23;20380;-85
2023/05/19 18:53:12;;;;;;;5.22;3.13;;;;;;;;;;12775505;23;20883;-85
2023/05/19 18:58:15;;;;;;;4.33;3.30;;;;;;;;;;12772606;23;20400;-85
2023/05/19 19:03:19;;;;;;;5.03;3.50;;;;;;;;;;12775677;23;20371;-86
2023/05/19 19:08:21;;;;;;;3.93;3.40;;;;;;;;;;12775160;23;20426;-86
2023/05/19 19:13:24;;;;;;;5.25;3.65;;;;;;;;;;12778097;23;20364;-86
2023/05/19 19:18:28;;;;;;;5.95;4.18;;;;;;;;;;12781646;23;20391;-85
2023/05/19 19:23:31;;;;;;;5.57;3.70;;;;;;;;;;12776606;23;20383;-86
2023/05/19 19:28:34;;;;;;;6.22;3.75;;;;;;;;;;12775824;23;20414;-85
2023/05/19 19:33:38;;;;;;;5.88;3.80;;;;;;;;;;12775661;23;20410;-86
2023/05/19 19:38:41;;;;;;;4.30;3.80;;;;;;;;;;12775539;23;20441;-86
2023/05/19 19:43:43;;;;;;;5.95;4.57;;;;;;;;;;12775883;23;20462;-86
2023/05/19 19:48:47;;;;;;;4.97;4.35;;;;;;;;;;12775574;23;20437;-85
2023/05/19 19:53:49;;;;;;;5.77;4.50;;;;;;;;;;12776191;23;20410;-85
2023/05/19 19:58:52;;;;;;;6.60;4.45;;;;;;;;;;12787590;23;20454;-85
2023/05/19 20:03:56;;;;;;;8.27;5.53;;;;;;;;;;12775943;23;20844;-85
2023/05/19 20:08:59;;;;;;;7.15;4.82;;;;;;;;;;12801647;23;20410;-85
2023/05/19 20:14:01;;;;;;;5.77;4.77;;;;;;;;;;12779853;23;20450;-85
2023/05/19 20:19:05;;;;;;;7.60;5.00;;;;;;;;;;12778002;23;20392;-85
2023/05/19 20:24:07;;;;;;;6.85;4.72;;;;;;;;;;12789503;23;20442;-86
2023/05/19 20:29:10;;;;;;;6.18;4.63;;;;;;;;;;12781053;23;20376;-86
2023/05/19 20:34:14;;;;;;;6.30;4.50;;;;;;;;;;12782027;23;20490;-86
2023/05/19 20:39:17;;;;;;;5.93;3.90;;;;;;;;;;12782597;23;20436;-87
2023/05/19 20:44:19;;;;;;;5.85;3.90;;;;;;;;;;12783521;23;20441;-86
2023/05/19 20:49:23;;;;;;;6.13;4.00;;;;;;;;;;12782239;23;20414;-86
2023/05/19 20:54:26;;;;;;;5.33;4.13;;;;;;;;;;12782647;23;20450;-86
2023/05/19 20:59:28;;;;;;;6.03;4.10;;;;;;;;;;12783671;23;20383;-85
2023/05/19 21:04:32;;;;;;;6.28;4.07;;;;;;;;;;12804641;23;20430;-86
2023/05/19 21:09:35;;;;;;;4.90;4.00;;;;;;;;;;12783015;23;20458;-87
2023/05/19 21:14:37;;;;;;;5.72;3.95;;;;;;;;;;12782398;23;20379;-86
2023/05/19 21:19:41;;;;;;;6.73;4.00;;;;;;;;;;12782082;23;20500;-86
2023/05/19 21:24:43;;;;;;;6.30;3.83;;;;;;;;;;12794957;23;20446;-85
2023/05/19 21:29:45;;;;;;;7.45;4.78;;;;;;;;;;12781944;23;20384;-85
2023/05/19 21:34:49;;;;;;;5.70;4.13;;;;;;;;;;12785073;23;20926;-87
2023/05/19 21:39:51;;;;;;;6.43;4.32;;;;;;;;;;12790771;23;20388;-86
2023/05/19 21:44:54;;;;;;;5.75;4.28;;;;;;;;;;12789783;23;20368;-86
2023/05/19 21:49:58;;;;;;;4.43;3.70;;;;;;;;;;12791434;23;20380;-86
2023/05/19 21:55:00;;;;;;;4.47;3.60;;;;;;;;;;12789430;23;20360;-86
2023/05/19 22:00:02;;;;;;;5.10;3.97;;;;;;;;;;12790684;23;20387;-86
2023/05/19 22:05:06;;;;;;;6.07;4.03;;;;;;;;;;12790581;23;20375;-86
2023/05/19 22:10:10;;;;;;;5.57;3.97;;;;;;;;;;12793141;23;20420;-86
2023/05/19 22:15:14;;;;;;;5.57;3.80;;;;;;;;;;12793233;23;20419;-86
2023/05/19 22:20:18;;;;;;;6.30;4.00;;;;;;;;;;12788188;23;20451;-82
2023/05/19 22:25:20;;;;;;;5.28;3.75;;;;;;;;;;12788118;23;20681;-86
2023/05/19 22:30:23;;;;;;;6.10;3.92;;;;;;;;;;12800533;23;20426;-86
2023/05/19 22:35:27;;;;;;;5.07;3.67;;;;;;;;;;12790173;23;20927;-86
2023/05/19 22:40:29;;;;;;;6.43;4.20;;;;;;;;;;12789284;23;20388;-86
2023/05/19 22:45:31;;;;;;;6.50;4.17;;;;;;;;;;12790103;23;20434;-86
2023/05/19 22:50:35;;;;;;;7.57;4.00;;;;;;;;;;12786778;23;20364;-87
2023/05/19 22:55:37;;;;;;;4.95;3.85;;;;;;;;;;12790486;23;20371;-86
2023/05/19 23:00:40;;;;;;;4.72;4.03;;;;;;;;;;12789616;23;20461;-85
2023/05/19 23:05:44;;;;;;;5.70;4.20;;;;;;;;;;12789547;23;20840;-86
2023/05/19 23:10:46;;;;;;;5.55;4.20;;;;;;;;;;12787925;23;20368;-86
2023/05/19 23:15:48;;;;;;;5.18;4.10;;;;;;;;;;12787989;23;20422;-87
2023/05/19 23:20:52;;;;;;;6.35;4.38;;;;;;;;;;12788879;23;20391;-86
2023/05/19 23:25:54;;;;;;;5.22;3.85;;;;;;;;;;12790768;23;20422;-86
2023/05/19 23:30:57;;;;;;;6.15;4.30;;;;;;;;;;12801752;23;20376;-86
2023/05/19 23:36:06;;;;;;;6.03;4.30;;;;;;;;;;12785065;23;20387;-85
2023/05/19 23:41:08;;;;;;;6.35;4.13;;;;;;;;;;12792761;23;20391;-86
2023/05/19 23:46:11;;;;;;;5.20;3.90;;;;;;;;;;12791717;23;20367;-84
2023/05/19 23:51:14;;;;;;;5.32;3.90;;;;;;;;;;12792820;23;20438;-86
2023/05/19 23:56:17;;;;;;;6.10;4.13;;;;;;;;;;12792504;23;20368;-86
